Time;durP1;ratioP1;P1;durP2;ratioP2;P2;SDS_P1;SDS_P2;PMS_P1;PMS_P2;Temp;Humidity;BMP_temperature;BMP_pressure;BME280_temperature;BME280_humidity;BME280_pressure;Samples;Min_cycle;Max_cycle;Signal;HPM_P1;HPM_P2
2023/12/29 00:00:38;;;;;;;0.30;0.30;;;10.10;99.90;;;;;;5064094;28;20437;-70
2023/12/29 00:03:03;;;;;;;0.30;0.30;;;10.50;99.90;;;;;;5052946;28;20051;-71
2023/12/29 00:05:30;;;;;;;0.10;0.10;;;10.60;99.90;;;;;;5071765;28;20041;-71
2023/12/29 00:07:56;;;;;;;0.30;0.30;;;10.40;99.90;;;;;;5070991;28;20059;-71
2023/12/29 00:10:21;;;;;;;2.80;1.17;;;10.20;99.90;;;;;;5071433;28;20048;-71
2023/12/29 00:12:47;;;;;;;0.63;0.63;;;10.50;99.90;;;;;;5071173;28;20053;-71
2023/12/29 00:15:16;;;;;;;0.55;0.55;;;10.80;99.90;;;;;;5071185;28;20076;-71
2023/12/29 00:17:42;;;;;;;0.50;0.50;;;10.60;99.90;;;;;;5069851;28;20059;-72
2023/12/29 00:20:08;;;;;;;0.57;0.57;;;10.20;99.90;;;;;;5071428;28;20045;-72
2023/12/29 00:22:34;;;;;;;3.20;2.22;;;10.60;99.90;;;;;;5070735;28;20091;-72
2023/12/29 00:25:00;;;;;;;2.58;0.68;;;10.70;99.90;;;;;;5071588;28;20388;-71
2023/12/29 00:27:25;;;;;;;2.80;1.10;;;10.30;99.90;;;;;;5070535;28;20117;-71
2023/12/29 00:29:51;;;;;;;3.42;1.15;;;10.60;99.90;;;;;;5071464;28;20045;-71
2023/12/29 00:32:17;;;;;;;0.57;0.57;;;10.40;99.90;;;;;;5070491;28;20049;-71
2023/12/29 00:34:42;;;;;;;0.20;0.20;;;10.80;99.90;;;;;;5070771;28;20044;-73
2023/12/29 00:37:08;;;;;;;0.25;0.25;;;10.60;99.90;;;;;;5069753;28;20076;-72
2023/12/29 00:39:38;;;;;;;1.70;1.60;;;10.70;99.90;;;;;;5070854;28;20067;-71
2023/12/29 00:42:06;;;;;;;4.65;0.95;;;10.40;99.90;;;;;;5102750;28;20044;-71
2023/12/29 00:44:31;;;;;;;0.88;0.88;;;10.70;99.90;;;;;;5070402;28;20044;-71
2023/12/29 00:46:57;;;;;;;2.92;0.52;;;10.60;99.90;;;;;;5068937;28;20049;-71
2023/12/29 00:49:23;;;;;;;1.25;0.90;;;10.80;99.90;;;;;;5070423;28;20064;-71
2023/12/29 00:51:48;;;;;;;7.32;0.77;;;10.90;99.90;;;;;;5069422;28;20055;-71
2023/12/29 00:54:15;;;;;;;0.20;0.20;;;11.00;99.90;;;;;;5070331;28;20053;-70
2023/12/29 00:56:40;;;;;;;;;;;10.70;99.90;;;;;;5069630;28;20048;-71
2023/12/29 00:59:07;;;;;;;0.85;0.82;;;10.20;99.90;;;;;;5070500;28;19947;-71
2023/12/29 01:01:35;;;;;;;0.20;0.20;;;10.80;99.90;;;;;;5055442;28;20390;-71
2023/12/29 01:04:02;;;;;;;0.52;0.52;;;10.20;99.90;;;;;;5092061;28;20052;-70
2023/12/29 01:06:27;;;;;;;3.20;0.35;;;10.80;99.90;;;;;;5070716;28;20049;-70
2023/12/29 01:08:53;;;;;;;8.73;1.35;;;10.50;99.90;;;;;;5071386;28;20170;-71
2023/12/29 01:11:19;;;;;;;0.20;0.20;;;10.70;99.90;;;;;;5070342;28;20800;-71
2023/12/29 01:13:44;;;;;;;0.43;0.40;;;10.40;99.90;;;;;;5070116;28;20102;-71
2023/12/29 01:16:10;;;;;;;0.10;0.10;;;10.60;99.90;;;;;;5070660;28;20408;-72
2023/12/29 01:18:36;;;;;;;3.75;0.30;;;10.50;98.60;;;;;;5070841;28;20037;-71
2023/12/29 01:21:01;;;;;;;0.50;0.50;;;10.80;99.90;;;;;;5073303;28;20086;-70
2023/12/29 01:23:27;;;;;;;0.20;0.20;;;10.60;99.90;;;;;;5075331;28;20044;-72
2023/12/29 01:25:53;;;;;;;0.80;0.28;;;10.70;99.90;;;;;;5074469;28;20048;-71
2023/12/29 01:28:18;;;;;;;0.63;0.63;;;10.80;99.90;;;;;;5074990;28;20036;-72
2023/12/29 01:30:44;;;;;;;5.28;1.00;;;10.70;99.90;;;;;;5074888;28;20131;-70
2023/12/29 01:33:10;;;;;;;0.35;0.35;;;10.70;99.90;;;;;;5075366;28;20048;-70
2023/12/29 01:35:36;;;;;;;1.02;0.82;;;10.80;98.70;;;;;;5073142;28;20048;-71
2023/12/29 01:38:02;;;;;;;2.13;1.75;;;10.50;96.60;;;;;;5055277;28;20373;-71
2023/12/29 01:40:28;;;;;;;0.47;0.47;;;10.60;95.40;;;;;;5087681;28;20049;-71
2023/12/29 01:42:54;;;;;;;1.25;0.40;;;10.10;90.00;;;;;;5055477;28;20507;-72
2023/12/29 01:45:22;;;;;;;0.43;0.43;;;10.50;89.40;;;;;;5068088;28;20047;-71
2023/12/29 01:47:49;;;;;;;1.33;1.15;;;10.90;93.60;;;;;;5054959;28;20049;-71
2023/12/29 01:50:19;;;;;;;5.00;0.57;;;10.20;94.60;;;;;;5067589;28;20052;-70
2023/12/29 01:52:45;;;;;;;0.20;0.20;;;10.40;94.10;;;;;;5055011;28;20133;-71
2023/12/29 01:55:14;;;;;;;3.35;0.88;;;10.40;91.70;;;;;;5054941;28;20055;-71
2023/12/29 01:57:40;;;;;;;0.43;0.38;;;10.70;99.90;;;;;;5055057;28;20048;-71
2023/12/29 02:00:06;;;;;;;3.00;0.55;;;10.30;99.90;;;;;;5054781;28;20041;-70
2023/12/29 02:02:32;;;;;;;1.67;0.82;;;10.60;99.90;;;;;;5053405;28;20049;-70
2023/12/29 02:05:00;;;;;;;8.63;0.52;;;10.30;99.90;;;;;;5067236;28;20504;-71
2023/12/29 02:07:30;;;;;;;0.50;0.50;;;10.50;99.90;;;;;;5053250;28;20047;-70
2023/12/29 02:09:58;;;;;;;0.45;0.45;;;10.40;99.90;;;;;;5057475;28;20044;-71
2023/12/29 02:12:23;;;;;;;0.35;0.35;;;10.40;99.90;;;;;;5064179;28;20060;-71
2023/12/29 02:14:49;;;;;;;3.45;0.68;;;10.30;99.90;;;;;;5054329;28;20459;-71
2023/12/29 02:17:40;;;;;;;17.15;0.63;;;10.20;91.00;;;;;;5065269;28;20086;-71
2023/12/29 02:20:09;;;;;;;3.20;2.10;;;10.70;74.50;;;;;;5074281;28;20040;-71
2023/12/29 02:22:35;;;;;;;15.38;1.02;;;10.20;54.60;;;;;;5072926;28;20052;-71
2023/12/29 02:25:00;;;;;;;1.98;1.27;;;10.80;55.40;;;;;;5054202;28;20496;-71
2023/12/29 02:27:38;;;;;;;0.30;0.30;;;;;;;;;;5053643;28;20037;-70
2023/12/29 02:30:29;;;;;;;1.00;0.90;;;10.50;27.00;;;;;;5053330;28;20111;-71
2023/12/29 02:32:58;;;;;;;1.98;1.02;;;10.70;23.70;;;;;;5059110;28;20509;-71
2023/12/29 02:35:27;;;;;;;0.35;0.35;;;10.50;25.60;;;;;;5061333;28;20136;-71
2023/12/29 02:37:54;;;;;;;0.55;0.52;;;10.50;24.70;;;;;;5036744;28;20049;-71
2023/12/29 02:40:20;;;;;;;0.57;0.57;;;10.30;22.10;;;;;;5047690;28;20456;-71
2023/12/29 02:42:47;;;;;;;0.50;0.50;;;10.00;12.20;;;;;;5041510;28;20036;-71
2023/12/29 02:45:13;;;;;;;1.17;1.17;;;10.50;22.50;;;;;;5053803;28;20049;-71
2023/12/29 02:47:39;;;;;;;11.38;0.47;;;10.50;14.30;;;;;;5059903;28;20100;-72
2023/12/29 02:50:05;;;;;;;0.47;0.47;;;10.50;1.00;;;;;;5073170;28;20087;-71
2023/12/29 02:52:30;;;;;;;5.93;0.30;;;10.00;1.00;;;;;;5060936;28;20494;-71
2023/12/29 02:54:56;;;;;;;2.83;0.85;;;10.30;1.00;;;;;;5072843;28;20128;-72
2023/12/29 02:57:22;;;;;;;0.43;0.43;;;10.50;1.00;;;;;;5052664;28;20073;-70
2023/12/29 02:59:47;;;;;;;2.72;0.55;;;10.60;5.40;;;;;;5053615;28;20044;-71
2023/12/29 03:02:13;;;;;;;0.75;0.43;;;10.40;9.10;;;;;;5052539;28;20067;-71
2023/12/29 03:04:39;;;;;;;0.60;0.60;;;10.40;1.00;;;;;;5053701;28;20440;-71
2023/12/29 03:07:04;;;;;;;0.52;0.43;;;10.30;1.00;;;;;;5073354;28;20045;-71
2023/12/29 03:09:30;;;;;;;0.50;0.50;;;10.10;7.70;;;;;;5106103;28;20071;-72
2023/12/29 03:11:56;;;;;;;0.32;0.32;;;10.40;5.20;;;;;;5071949;28;20055;-71
2023/12/29 03:14:21;;;;;;;0.80;0.77;;;10.00;5.00;;;;;;5059399;28;20057;-71
2023/12/29 03:16:47;;;;;;;0.68;0.68;;;10.10;16.60;;;;;;5066019;28;20047;-71
2023/12/29 03:19:13;;;;;;;0.25;0.25;;;9.90;9.80;;;;;;5066490;28;20506;-70
2023/12/29 03:21:38;;;;;;;1.17;0.52;;;10.30;8.90;;;;;;5105811;28;20438;-72
2023/12/29 03:24:04;;;;;;;0.40;0.40;;;10.10;1.00;;;;;;5071187;28;20170;-74
2023/12/29 03:26:30;;;;;;;0.28;0.28;;;10.00;1.00;;;;;;5053065;28;20083;-72
2023/12/29 03:28:56;;;;;;;0.40;0.40;;;10.40;1.00;;;;;;5035055;28;20056;-71
2023/12/29 03:31:21;;;;;;;0.57;0.57;;;10.40;1.00;;;;;;5059897;28;20522;-71
2023/12/29 03:33:48;;;;;;;15.88;0.82;;;10.40;1.00;;;;;;5072326;28;20059;-70
2023/12/29 03:36:14;;;;;;;0.43;0.43;;;10.20;1.00;;;;;;5105496;28;20119;-73
2023/12/29 03:38:39;;;;;;;2.53;1.27;;;9.90;1.00;;;;;;5070145;28;20182;-71
2023/12/29 03:41:05;;;;;;;2.85;1.45;;;10.20;1.00;;;;;;5072381;28;20045;-70
2023/12/29 03:43:31;;;;;;;0.10;0.10;;;10.00;1.00;;;;;;5070538;28;20049;-71
2023/12/29 03:45:56;;;;;;;1.00;1.00;;;10.10;1.00;;;;;;5072041;28;20052;-72
2023/12/29 03:48:22;;;;;;;0.80;0.60;;;10.30;1.00;;;;;;5071512;28;20040;-70
2023/12/29 03:50:48;;;;;;;7.28;0.40;;;10.00;1.00;;;;;;5072058;28;20092;-71
2023/12/29 03:53:14;;;;;;;0.30;0.17;;;10.20;1.00;;;;;;5071109;28;20044;-71
2023/12/29 03:55:41;;;;;;;11.60;1.95;;;10.50;1.00;;;;;;5045907;28;20097;-71
2023/12/29 03:58:06;;;;;;;;;;;9.70;1.00;;;;;;5071384;28;20041;-71
2023/12/29 04:00:32;;;;;;;0.40;0.40;;;9.90;1.00;;;;;;5065550;28;19920;-72
2023/12/29 04:02:58;;;;;;;0.35;0.30;;;10.10;1.00;;;;;;5064564;28;20052;-71
2023/12/29 04:05:23;;;;;;;2.25;1.10;;;9.80;1.00;;;;;;5065279;28;20053;-71
2023/12/29 04:07:49;;;;;;;0.13;0.13;;;9.80;1.00;;;;;;5051532;28;20084;-71
2023/12/29 04:10:15;;;;;;;0.90;0.90;;;9.60;1.00;;;;;;5052479;28;20052;-71
2023/12/29 04:12:41;;;;;;;11.75;1.50;;;9.80;1.00;;;;;;5053205;28;20061;-70
2023/12/29 04:15:07;;;;;;;1.80;1.20;;;10.00;1.00;;;;;;5053492;28;20049;-71
2023/12/29 04:17:33;;;;;;;1.38;1.35;;;10.00;1.00;;;;;;5053516;28;20081;-72
2023/12/29 04:19:59;;;;;;;5.57;0.60;;;9.80;1.00;;;;;;5053620;28;20095;-71
2023/12/29 04:22:25;;;;;;;5.20;1.55;;;10.00;1.00;;;;;;5053184;28;20477;-71
2023/12/29 04:24:51;;;;;;;0.40;0.40;;;9.70;1.00;;;;;;5053251;28;20076;-71
2023/12/29 04:27:17;;;;;;;3.53;1.05;;;10.00;1.00;;;;;;5053222;28;20547;-71
2023/12/29 04:29:45;;;;;;;1.55;1.23;;;9.80;1.00;;;;;;5053111;28;20493;-72
2023/12/29 04:32:10;;;;;;;3.65;0.95;;;9.80;1.00;;;;;;5086247;28;20053;-72
2023/12/29 04:34:36;;;;;;;1.15;1.10;;;9.80;1.00;;;;;;5053255;28;20059;-71
2023/12/29 04:37:02;;;;;;;2.70;0.77;;;9.80;1.00;;;;;;5053202;28;20041;-72
2023/12/29 04:39:27;;;;;;;0.65;0.30;;;10.00;1.00;;;;;;5052183;28;20131;-71
2023/12/29 04:41:53;;;;;;;1.13;0.68;;;10.20;1.00;;;;;;5053092;28;20040;-72
2023/12/29 04:44:18;;;;;;;0.40;0.40;;;10.20;1.00;;;;;;5052236;28;20056;-71
2023/12/29 04:46:44;;;;;;;6.72;2.85;;;10.00;1.00;;;;;;5053385;28;20080;-72
2023/12/29 04:49:10;;;;;;;0.63;0.57;;;9.70;1.00;;;;;;5054012;28;20044;-71
2023/12/29 04:51:35;;;;;;;0.30;0.30;;;9.60;1.00;;;;;;5052688;28;20049;-71
2023/12/29 04:54:02;;;;;;;2.25;1.10;;;9.90;1.00;;;;;;5053238;28;20041;-71
2023/12/29 04:56:27;;;;;;;1.13;0.68;;;9.90;1.00;;;;;;5051059;28;20056;-72
2023/12/29 04:58:53;;;;;;;0.20;0.20;;;9.80;1.00;;;;;;5053019;28;20037;-71
2023/12/29 05:01:19;;;;;;;0.38;0.38;;;10.10;1.00;;;;;;5052360;28;20160;-71
2023/12/29 05:03:44;;;;;;;0.65;0.65;;;9.80;1.00;;;;;;5070499;28;20040;-72
2023/12/29 05:06:10;;;;;;;0.57;0.57;;;9.90;1.00;;;;;;5069816;28;20396;-71
2023/12/29 05:08:36;;;;;;;0.20;0.20;;;10.10;1.00;;;;;;5070833;28;20388;-71
2023/12/29 05:11:01;;;;;;;10.60;1.63;;;9.80;1.00;;;;;;5053627;28;20052;-71
2023/12/29 05:13:27;;;;;;;2.90;0.47;;;9.90;1.00;;;;;;5070947;28;20049;-72
2023/12/29 05:15:53;;;;;;;0.90;0.88;;;9.80;1.00;;;;;;5070876;28;20095;-72
2023/12/29 05:18:18;;;;;;;2.92;1.00;;;9.90;1.00;;;;;;5069722;28;20543;-71
2023/12/29 05:20:44;;;;;;;0.55;0.55;;;10.00;1.00;;;;;;5086511;28;20396;-71
2023/12/29 05:23:10;;;;;;;0.43;0.43;;;10.10;1.00;;;;;;5069338;28;20040;-72
2023/12/29 05:25:35;;;;;;;0.30;0.30;;;9.70;1.00;;;;;;5070515;28;20060;-71
2023/12/29 05:28:01;;;;;;;1.48;1.38;;;9.90;1.00;;;;;;5069881;28;20033;-71
2023/12/29 05:30:27;;;;;;;0.30;0.30;;;10.30;1.00;;;;;;5071001;28;20041;-71
2023/12/29 05:32:53;;;;;;;9.77;1.58;;;9.70;1.00;;;;;;5070505;28;20463;-71
2023/12/29 05:35:19;;;;;;;1.15;1.08;;;10.00;1.00;;;;;;5070195;28;20163;-71
2023/12/29 05:37:44;;;;;;;0.20;0.20;;;10.30;1.00;;;;;;5063842;28;20091;-73
2023/12/29 05:40:11;;;;;;;0.40;0.40;;;10.10;1.00;;;;;;5063813;28;20055;-71
2023/12/29 05:42:36;;;;;;;0.40;0.40;;;9.80;1.00;;;;;;5070403;28;20157;-72
2023/12/29 05:45:02;;;;;;;2.08;1.02;;;10.20;1.00;;;;;;5070313;28;20133;-72
2023/12/29 05:47:28;;;;;;;0.45;0.40;;;9.80;1.00;;;;;;5070678;28;20093;-70
2023/12/29 05:49:53;;;;;;;1.33;1.15;;;10.00;1.00;;;;;;5069271;28;20044;-71
2023/12/29 05:52:19;;;;;;;0.77;0.38;;;10.20;1.00;;;;;;5045261;28;20043;-72
2023/12/29 05:54:45;;;;;;;0.52;0.52;;;9.90;1.00;;;;;;5069101;28;20522;-72
2023/12/29 05:57:10;;;;;;;0.90;0.70;;;9.90;1.00;;;;;;5070804;28;20037;-71
2023/12/29 05:59:36;;;;;;;2.58;1.80;;;10.10;1.00;;;;;;5069083;28;20131;-71
2023/12/29 06:02:02;;;;;;;0.40;0.40;;;9.70;1.00;;;;;;5051946;28;20037;-71
2023/12/29 06:04:28;;;;;;;1.33;1.27;;;9.70;1.00;;;;;;5050936;28;20053;-72
2023/12/29 06:06:53;;;;;;;0.30;0.30;;;9.60;1.00;;;;;;5052250;28;20049;-71
2023/12/29 06:09:19;;;;;;;0.40;0.40;;;10.30;1.00;;;;;;5055056;28;20508;-72
2023/12/29 06:11:45;;;;;;;0.20;0.20;;;9.90;1.00;;;;;;5055258;28;20370;-71
2023/12/29 06:14:11;;;;;;;0.20;0.20;;;9.80;1.00;;;;;;5053821;28;20136;-71
2023/12/29 06:16:36;;;;;;;5.25;1.08;;;10.20;1.00;;;;;;5055629;28;20392;-72
2023/12/29 06:19:02;;;;;;;19.08;1.67;;;9.90;1.00;;;;;;5054954;28;20041;-71
2023/12/29 06:21:28;;;;;;;0.30;0.30;;;9.90;1.00;;;;;;5054966;28;20459;-71
2023/12/29 06:23:54;;;;;;;0.40;0.40;;;9.70;1.00;;;;;;5055391;28;20041;-72
2023/12/29 06:26:20;;;;;;;5.07;2.92;;;9.60;1.00;;;;;;5089109;28;20053;-73
2023/12/29 06:28:47;;;;;;;0.20;0.20;;;9.90;1.00;;;;;;5055641;28;20045;-71
2023/12/29 06:31:12;;;;;;;;;;;10.20;1.00;;;;;;5057286;28;20386;-71
2023/12/29 06:33:44;;;;;;;2.17;1.52;;;10.00;1.00;;;;;;5049472;28;19955;-73
2023/12/29 06:36:10;;;;;;;9.75;1.35;;;10.00;1.00;;;;;;5046417;28;20041;-71
2023/12/29 06:38:36;;;;;;;0.25;0.25;;;10.20;1.00;;;;;;5057467;28;20075;-72
2023/12/29 06:41:03;;;;;;;1.85;1.67;;;9.80;1.00;;;;;;5060746;28;20053;-71
2023/12/29 06:43:29;;;;;;;2.03;0.75;;;10.30;1.00;;;;;;5090753;28;20118;-71
2023/12/29 06:45:55;;;;;;;1.50;0.60;;;10.10;1.00;;;;;;5060531;28;20044;-71
2023/12/29 06:48:21;;;;;;;4.80;1.35;;;10.00;1.00;;;;;;5057048;28;20037;-72
2023/12/29 06:50:47;;;;;;;3.20;0.63;;;10.20;1.00;;;;;;5061118;28;20041;-71
2023/12/29 06:53:12;;;;;;;0.50;0.45;;;10.00;1.00;;;;;;5073724;28;20076;-71
2023/12/29 06:55:38;;;;;;;0.20;0.20;;;9.90;1.00;;;;;;5060831;28;20047;-71
2023/12/29 06:58:07;;;;;;;3.10;0.93;;;10.10;16.20;;;;;;5056716;28;20048;-72
2023/12/29 07:00:33;;;;;;;0.43;0.43;;;9.80;3.20;;;;;;5054230;28;20041;-72
2023/12/29 07:03:00;;;;;;;10.38;0.47;;;10.10;1.10;;;;;;5052999;28;20056;-71
2023/12/29 07:05:26;;;;;;;4.20;0.57;;;10.00;1.00;;;;;;5052559;28;20041;-72
2023/12/29 07:07:52;;;;;;;1.75;1.65;;;9.90;1.00;;;;;;5054069;28;20194;-71
2023/12/29 07:10:17;;;;;;;0.10;0.10;;;9.80;1.00;;;;;;5045203;28;20046;-72
2023/12/29 07:12:43;;;;;;;1.45;0.43;;;9.80;1.00;;;;;;5047035;28;20419;-72
2023/12/29 07:15:09;;;;;;;3.53;0.50;;;9.70;1.00;;;;;;5062807;28;20126;-72
2023/12/29 07:17:35;;;;;;;6.53;0.75;;;9.70;1.00;;;;;;5090493;28;20413;-72
2023/12/29 07:20:01;;;;;;;0.80;0.80;;;9.90;1.00;;;;;;5050056;28;20049;-72
2023/12/29 07:22:26;;;;;;;0.20;0.20;;;9.50;1.00;;;;;;5040580;28;20711;-72
2023/12/29 07:24:53;;;;;;;1.05;0.95;;;9.70;1.00;;;;;;5061546;28;20050;-72
2023/12/29 07:27:18;;;;;;;;;;;9.70;1.00;;;;;;5057390;28;20092;-72
2023/12/29 07:29:44;;;;;;;0.25;0.25;;;9.70;1.00;;;;;;5061057;28;20506;-72
2023/12/29 07:32:10;;;;;;;19.83;1.33;;;9.80;1.00;;;;;;5056361;28;20041;-72
2023/12/29 07:34:35;;;;;;;2.80;0.90;;;10.00;1.00;;;;;;5061285;28;20070;-71
2023/12/29 07:37:01;;;;;;;1.45;0.88;;;9.70;1.00;;;;;;5057463;28;20080;-71
2023/12/29 07:39:27;;;;;;;0.80;0.63;;;9.60;1.00;;;;;;5060666;28;20489;-72
2023/12/29 07:41:53;;;;;;;12.45;1.48;;;9.70;1.00;;;;;;5057584;28;20114;-73
2023/12/29 07:44:19;;;;;;;2.30;1.77;;;9.70;1.00;;;;;;5059698;28;20040;-72
2023/12/29 07:46:44;;;;;;;0.88;0.75;;;9.40;1.00;;;;;;5046864;28;20045;-72
2023/12/29 07:49:10;;;;;;;9.25;1.13;;;9.50;1.00;;;;;;5056036;28;20084;-72
2023/12/29 07:51:40;;;;;;;1.00;0.93;;;9.80;1.00;;;;;;5057338;28;20440;-72
2023/12/29 07:54:07;;;;;;;2.38;1.60;;;10.00;1.00;;;;;;5051984;28;20075;-73
2023/12/29 07:56:33;;;;;;;0.45;0.45;;;10.00;1.00;;;;;;5057166;28;20160;-73
2023/12/29 07:58:59;;;;;;;;;;;9.90;1.00;;;;;;5062001;28;20360;-73
2023/12/29 08:01:25;;;;;;;0.22;0.22;;;9.50;1.00;;;;;;5051861;28;20007;-73
2023/12/29 08:03:51;;;;;;;0.25;0.20;;;9.70;1.00;;;;;;5052365;28;20080;-71
2023/12/29 08:06:17;;;;;;;0.73;0.73;;;9.40;1.00;;;;;;5052016;28;20083;-72
2023/12/29 08:08:42;;;;;;;0.30;0.30;;;9.70;1.00;;;;;;5071679;28;20074;-73
2023/12/29 08:11:15;;;;;;;0.22;0.22;;;9.60;1.00;;;;;;5090055;28;20049;-72
2023/12/29 08:13:43;;;;;;;0.30;0.30;;;9.70;1.00;;;;;;5051882;28;20429;-71
2023/12/29 08:16:09;;;;;;;2.63;1.40;;;9.90;1.00;;;;;;5052018;28;20060;-74
2023/12/29 08:18:35;;;;;;;0.60;0.60;;;9.60;1.00;;;;;;5084378;28;20037;-72
2023/12/29 08:21:01;;;;;;;;;;;9.80;1.00;;;;;;5051466;28;20055;-72
2023/12/29 08:23:26;;;;;;;0.50;0.50;;;9.60;1.00;;;;;;5052265;28;19920;-74
2023/12/29 08:25:52;;;;;;;0.38;0.38;;;9.90;1.00;;;;;;5052057;28;20049;-72
2023/12/29 08:28:18;;;;;;;0.50;0.50;;;9.80;1.00;;;;;;5052129;28;20505;-72
2023/12/29 08:30:45;;;;;;;2.70;1.40;;;9.70;1.00;;;;;;5053170;28;20045;-72
2023/12/29 08:33:13;;;;;;;0.70;0.50;;;9.90;1.00;;;;;;5035266;28;20057;-73
2023/12/29 08:35:40;;;;;;;0.90;0.90;;;9.90;1.00;;;;;;5053306;28;20060;-74
2023/12/29 08:38:06;;;;;;;8.95;1.27;;;9.80;1.00;;;;;;5085033;28;20478;-72
2023/12/29 08:40:32;;;;;;;0.20;0.20;;;10.20;1.00;;;;;;5052968;28;20045;-71
2023/12/29 08:42:57;;;;;;;0.10;0.10;;;9.80;1.00;;;;;;5052215;28;20049;-72
2023/12/29 08:45:23;;;;;;;2.00;0.52;;;9.60;1.00;;;;;;5052446;28;20516;-71
2023/12/29 08:47:49;;;;;;;1.05;0.25;;;9.50;1.00;;;;;;5051347;28;20094;-72
2023/12/29 08:50:15;;;;;;;0.20;0.20;;;9.80;1.00;;;;;;5052516;28;20386;-73
2023/12/29 08:52:41;;;;;;;24.75;1.15;;;9.70;1.00;;;;;;5083740;28;20063;-72
2023/12/29 08:55:08;;;;;;;0.47;0.47;;;9.70;1.00;;;;;;5052745;28;20119;-72
2023/12/29 08:57:34;;;;;;;3.72;0.52;;;10.00;1.00;;;;;;5052316;28;20144;-71
2023/12/29 08:59:59;;;;;;;5.95;1.33;;;9.60;1.00;;;;;;5085138;28;20048;-72
2023/12/29 09:02:25;;;;;;;2.42;0.40;;;10.00;1.00;;;;;;5051505;28;20048;-73
2023/12/29 09:04:51;;;;;;;2.03;0.77;;;9.80;1.00;;;;;;5051528;28;20052;-72
2023/12/29 09:07:17;;;;;;;2.55;1.23;;;9.50;1.00;;;;;;5050151;28;20049;-73
2023/12/29 09:09:42;;;;;;;3.83;0.57;;;10.00;1.00;;;;;;5051031;28;20045;-72
2023/12/29 09:12:08;;;;;;;1.90;0.55;;;10.10;1.00;;;;;;5059643;28;20523;-73
2023/12/29 09:14:34;;;;;;;2.08;0.73;;;9.60;1.00;;;;;;5055331;28;20053;-72
2023/12/29 09:17:00;;;;;;;1.20;1.00;;;9.40;1.00;;;;;;5050899;28;20064;-72
2023/12/29 09:19:26;;;;;;;0.10;0.10;;;9.50;1.00;;;;;;5064341;28;20048;-74
2023/12/29 09:21:52;;;;;;;0.20;0.20;;;9.80;1.00;;;;;;5059803;28;20045;-74
2023/12/29 09:24:17;;;;;;;0.20;0.20;;;10.00;1.00;;;;;;5070612;28;20055;-72
2023/12/29 09:26:44;;;;;;;0.30;0.30;;;9.90;1.00;;;;;;5052680;28;20076;-72
2023/12/29 09:29:09;;;;;;;;;;;9.90;1.00;;;;;;5069358;28;20061;-73
2023/12/29 09:31:36;;;;;;;1.98;0.82;;;9.80;1.00;;;;;;5070943;28;19928;-72
2023/12/29 09:34:02;;;;;;;7.78;1.48;;;9.60;1.00;;;;;;5070015;28;20454;-73
2023/12/29 09:36:27;;;;;;;0.40;0.40;;;11.50;1.00;;;;;;5052827;28;20048;-72
2023/12/29 09:38:53;;;;;;;5.45;1.45;;;9.60;1.00;;;;;;5069703;28;20044;-72
2023/12/29 09:41:23;;;;;;;1.25;0.85;;;9.50;1.00;;;;;;5070375;28;20641;-71
2023/12/29 09:43:49;;;;;;;0.57;0.57;;;10.00;1.00;;;;;;5072967;28;20076;-73
2023/12/29 09:46:18;;;;;;;0.52;0.52;;;9.90;1.00;;;;;;5074074;28;20080;-72
2023/12/29 09:48:46;;;;;;;0.95;0.75;;;10.20;1.00;;;;;;5072849;28;20499;-71
2023/12/29 09:51:12;;;;;;;1.88;0.95;;;10.10;1.00;;;;;;5073586;28;20052;-73
2023/12/29 09:53:39;;;;;;;5.78;2.15;;;10.10;1.00;;;;;;5072934;28;20082;-71
2023/12/29 09:56:07;;;;;;;10.88;2.97;;;10.00;1.00;;;;;;5074004;28;20139;-72
2023/12/29 09:58:34;;;;;;;0.98;0.30;;;10.20;1.00;;;;;;5072346;28;20044;-73
2023/12/29 10:01:03;;;;;;;0.40;0.40;;;9.70;1.00;;;;;;5063821;28;20041;-72
2023/12/29 10:03:29;;;;;;;0.35;0.35;;;9.60;1.00;;;;;;5071353;28;20047;-72
2023/12/29 10:05:59;;;;;;;0.30;0.30;;;9.60;1.00;;;;;;5073986;28;20052;-73
2023/12/29 10:08:27;;;;;;;3.92;0.93;;;9.60;1.00;;;;;;5056252;28;20090;-72
2023/12/29 10:10:56;;;;;;;0.50;0.50;;;9.90;1.00;;;;;;5054721;28;20048;-72
2023/12/29 10:13:23;;;;;;;0.40;0.40;;;9.90;1.00;;;;;;5053884;28;20052;-71
2023/12/29 10:16:12;;;;;;;0.20;0.20;;;9.80;1.00;;;;;;5054824;28;20133;-72
2023/12/29 10:19:02;;;;;;;0.73;0.73;;;10.10;1.00;;;;;;5052818;28;20045;-71
2023/12/29 10:21:31;;;;;;;0.40;0.40;;;10.00;1.00;;;;;;5070874;28;20072;-72
2023/12/29 10:24:09;;;;;;;1.65;0.43;;;10.00;1.00;;;;;;5072523;28;20044;-73
2023/12/29 10:26:36;;;;;;;15.45;0.80;;;10.10;1.00;;;;;;5041769;28;20131;-71
2023/12/29 10:29:02;;;;;;;2.25;1.52;;;9.80;1.00;;;;;;5053788;28;20389;-73
2023/12/29 10:31:28;;;;;;;0.22;0.22;;;10.20;1.00;;;;;;5054117;28;20063;-73
2023/12/29 10:34:21;;;;;;;0.13;0.13;;;10.10;1.00;;;;;;5053377;28;20045;-72
2023/12/29 10:36:50;;;;;;;0.98;0.88;;;10.10;1.00;;;;;;5054782;28;20053;-71
2023/12/29 10:39:16;;;;;;;0.75;0.60;;;10.40;1.00;;;;;;5054694;28;20129;-72
2023/12/29 10:41:42;;;;;;;25.55;0.60;;;10.20;1.00;;;;;;5054713;28;20055;-74
2023/12/29 10:44:08;;;;;;;3.30;0.50;;;10.40;99.90;;;;;;5086911;28;20037;-73
2023/12/29 10:46:33;;;;;;;;;;;10.10;99.90;;;;;;5055098;28;20481;-74
2023/12/29 10:49:09;;;;;;;0.98;0.90;;;10.00;99.90;;;;;;5055621;28;19936;-73
2023/12/29 10:51:37;;;;;;;0.23;0.23;;;10.10;99.90;;;;;;5055074;28;20503;-74
2023/12/29 10:54:03;;;;;;;0.20;0.20;;;10.30;99.90;;;;;;5055562;28;20048;-72
2023/12/29 10:56:29;;;;;;;0.40;0.40;;;9.90;99.90;;;;;;5046387;28;20049;-72
2023/12/29 10:59:03;;;;;;;0.55;0.55;;;10.40;99.90;;;;;;5062155;28;20102;-72
2023/12/29 11:01:34;;;;;;;0.20;0.20;;;10.20;99.90;;;;;;5053638;28;20049;-73
2023/12/29 11:04:04;;;;;;;0.20;0.20;;;10.20;99.90;;;;;;5061414;28;20063;-73
2023/12/29 11:06:39;;;;;;;0.25;0.25;;;10.10;99.90;;;;;;5064013;28;20048;-71
2023/12/29 11:09:05;;;;;;;0.20;0.20;;;9.90;99.90;;;;;;5072006;28;20083;-73
2023/12/29 11:11:32;;;;;;;0.80;0.65;;;10.00;99.90;;;;;;5073099;28;20079;-72
2023/12/29 11:13:58;;;;;;;0.40;0.40;;;10.00;99.90;;;;;;5073053;28;20056;-72
2023/12/29 11:16:25;;;;;;;0.10;0.10;;;10.00;99.90;;;;;;5071870;28;20048;-71
2023/12/29 11:18:52;;;;;;;0.25;0.25;;;10.10;99.90;;;;;;5073330;28;20053;-72
2023/12/29 11:21:21;;;;;;;0.20;0.20;;;10.80;99.90;;;;;;5072745;28;20049;-73
2023/12/29 11:23:47;;;;;;;5.60;0.47;;;10.40;99.90;;;;;;5071694;28;20060;-72
2023/12/29 11:26:13;;;;;;;10.70;0.35;;;10.00;99.90;;;;;;5072303;28;20170;-71
2023/12/29 11:28:40;;;;;;;1.17;1.10;;;9.90;99.90;;;;;;5072261;28;20225;-71
2023/12/29 11:31:06;;;;;;;0.30;0.30;;;10.20;99.90;;;;;;5067455;28;20051;-73
2023/12/29 11:33:42;;;;;;;6.00;0.63;;;10.40;99.90;;;;;;5053385;28;20400;-73
2023/12/29 11:36:16;;;;;;;0.10;0.10;;;10.10;99.90;;;;;;5052836;28;20497;-70
2023/12/29 11:38:54;;;;;;;0.10;0.10;;;10.20;99.90;;;;;;5067073;28;20388;-72
2023/12/29 11:41:39;;;;;;;1.52;1.25;;;10.30;99.90;;;;;;5072659;28;20080;-72
2023/12/29 11:44:05;;;;;;;0.10;0.10;;;10.00;99.90;;;;;;5067416;28;20045;-72
2023/12/29 11:46:43;;;;;;;1.88;0.68;;;9.80;99.90;;;;;;5053033;28;20057;-72
2023/12/29 11:49:09;;;;;;;0.30;0.30;;;9.60;99.90;;;;;;5040107;28;20381;-73
2023/12/29 11:51:39;;;;;;;0.20;0.20;;;9.80;99.90;;;;;;5053103;28;20044;-72
2023/12/29 11:54:06;;;;;;;0.65;0.65;;;9.80;99.90;;;;;;5053312;28;20048;-73
2023/12/29 11:56:41;;;;;;;0.20;0.20;;;9.50;99.90;;;;;;5053262;28;20084;-72
2023/12/29 11:59:16;;;;;;;0.30;0.30;;;9.80;99.90;;;;;;5051710;28;20072;-72
2023/12/29 12:01:42;;;;;;;0.13;0.13;;;9.90;99.90;;;;;;5055160;28;21224;-72
2023/12/29 12:04:35;;;;;;;14.90;1.48;;;9.90;99.90;;;;;;5071734;28;20106;-72
2023/12/29 12:07:02;;;;;;;1.13;1.02;;;10.00;99.90;;;;;;5072072;28;20141;-73
2023/12/29 12:09:28;;;;;;;1.70;1.02;;;9.90;99.90;;;;;;5071952;28;20472;-73
2023/12/29 12:11:54;;;;;;;0.50;0.50;;;10.10;99.90;;;;;;5071737;28;20048;-76
2023/12/29 12:14:44;;;;;;;0.20;0.20;;;9.90;99.90;;;;;;5070807;28;20060;-72
2023/12/29 12:17:11;;;;;;;3.70;0.90;;;10.40;99.90;;;;;;5061072;28;20105;-72
2023/12/29 12:19:36;;;;;;;0.30;0.30;;;10.00;99.90;;;;;;5070311;28;20052;-72
2023/12/29 12:22:03;;;;;;;8.18;1.25;;;10.60;99.90;;;;;;5071483;28;20055;-74
2023/12/29 12:24:28;;;;;;;0.20;0.20;;;10.50;99.90;;;;;;5070428;28;20040;-75
2023/12/29 12:26:55;;;;;;;0.52;0.52;;;10.30;99.90;;;;;;5070696;28;20388;-75
2023/12/29 12:29:21;;;;;;;1.10;0.77;;;10.30;99.90;;;;;;5071488;28;20048;-71
2023/12/29 12:31:57;;;;;;;0.38;0.38;;;10.30;99.90;;;;;;5071984;28;20056;-71
2023/12/29 12:34:23;;;;;;;0.10;0.10;;;10.10;99.90;;;;;;5071128;28;20120;-72
2023/12/29 12:36:52;;;;;;;3.05;0.52;;;10.20;99.90;;;;;;5071901;28;20279;-73
2023/12/29 12:39:19;;;;;;;0.50;0.20;;;10.50;99.90;;;;;;5053234;28;20037;-72
2023/12/29 12:41:45;;;;;;;0.50;0.50;;;10.00;99.90;;;;;;5062947;28;20395;-77
2023/12/29 12:44:13;;;;;;;0.10;0.10;;;9.90;99.90;;;;;;5057025;28;20052;-72
2023/12/29 12:46:57;;;;;;;0.77;0.68;;;10.00;99.90;;;;;;5071483;28;20526;-72
2023/12/29 12:49:22;;;;;;;0.20;0.20;;;10.00;99.90;;;;;;5071634;28;20039;-70
2023/12/29 12:51:48;;;;;;;0.20;0.20;;;10.30;99.90;;;;;;5071321;28;20041;-74
2023/12/29 12:54:18;;;;;;;;;;;10.20;99.90;;;;;;5064090;28;20400;-72
2023/12/29 12:56:44;;;;;;;2.03;0.65;;;9.90;99.90;;;;;;5053570;28;19921;-71
2023/12/29 12:59:11;;;;;;;0.68;0.68;;;9.80;99.90;;;;;;5071377;28;20064;-74